Time;durP1;ratioP1;P1;durP2;ratioP2;P2;SDS_P1;SDS_P2;PMS_P1;PMS_P2;Temp;Humidity;BMP_temperature;BMP_pressure;BME280_temperature;BME280_humidity;BME280_pressure;Samples;Min_cycle;Max_cycle;Signal;HPM_P1;HPM_P2
2021/09/17 00:01:20;;;;;;;;;;;14.60;44.70;;;;;;4344063;33;19970;-49
2021/09/17 00:03:46;;;;;;;;;;;14.60;45.00;;;;;;4344185;33;20365;-51
2021/09/17 00:06:12;;;;;;;;;;;14.50;45.00;;;;;;4344317;33;19973;-49
2021/09/17 00:08:38;;;;;;;;;;;14.50;45.00;;;;;;4330165;33;19994;-49
2021/09/17 00:11:06;;;;;;;;;;;14.60;44.90;;;;;;4330089;33;20078;-49
2021/09/17 00:13:34;;;;;;;;;;;14.70;45.50;;;;;;4343721;33;19977;-49
2021/09/17 00:16:00;;;;;;;;;;;14.80;44.60;;;;;;4343693;33;20048;-47
2021/09/17 00:18:26;;;;;;;;;;;14.90;44.30;;;;;;4343920;33;20427;-51
2021/09/17 00:20:52;;;;;;;;;;;15.00;44.10;;;;;;4343736;33;19970;-50
2021/09/17 00:23:18;;;;;;;;;;;15.00;44.00;;;;;;4343687;33;20513;-40
2021/09/17 00:25:44;;;;;;;;;;;15.00;43.90;;;;;;4343890;33;19985;-52
2021/09/17 00:28:11;;;;;;;;;;;15.00;43.90;;;;;;4343705;33;20047;-48
2021/09/17 00:30:37;;;;;;;;;;;15.00;43.90;;;;;;4343656;33;20461;-48
2021/09/17 00:33:03;;;;;;;;;;;15.10;43.80;;;;;;4343515;33;20387;-48
2021/09/17 00:35:29;;;;;;;;;;;15.20;43.70;;;;;;4343728;33;19966;-51
2021/09/17 00:37:55;;;;;;;;;;;15.30;43.30;;;;;;4343398;33;20079;-50
2021/09/17 00:40:22;;;;;;;;;;;15.40;43.20;;;;;;4343966;33;19978;-49
2021/09/17 00:42:48;;;;;;;;;;;15.40;43.00;;;;;;4344002;33;19982;-49
2021/09/17 00:45:14;;;;;;;;;;;15.50;42.80;;;;;;4343529;33;19959;-48
2021/09/17 00:47:41;;;;;;;;;;;15.50;42.50;;;;;;4344432;32;20076;-49
2021/09/17 00:50:13;;;;;;;;;;;15.50;42.20;;;;;;4358515;32;19978;-50
2021/09/17 00:52:39;;;;;;;;;;;15.40;42.10;;;;;;4358384;32;20116;-49
2021/09/17 00:55:05;;;;;;;;;;;15.30;42.10;;;;;;4357948;32;19973;-49
2021/09/17 00:57:32;;;;;;;;;;;15.30;42.30;;;;;;4344434;32;20087;-49
2021/09/17 00:59:58;;;;;;;;;;;15.30;42.40;;;;;;4360768;32;19977;-49
2021/09/17 01:02:24;;;;;;;;;;;15.20;42.40;;;;;;4360973;32;20466;-50
2021/09/17 01:04:50;;;;;;;;;;;15.30;42.40;;;;;;4361555;32;20048;-48
2021/09/17 01:07:16;;;;;;;;;;;15.30;42.50;;;;;;4361460;32;20042;-50
2021/09/17 01:09:42;;;;;;;;;;;15.40;42.50;;;;;;4361287;32;19963;-51
2021/09/17 01:12:09;;;;;;;;;;;15.50;42.40;;;;;;4347628;32;19963;-48
2021/09/17 01:14:36;;;;;;;;;;;15.60;42.30;;;;;;4347165;32;20044;-45
2021/09/17 01:17:03;;;;;;;;;;;15.60;42.80;;;;;;4361094;32;19978;-51
2021/09/17 01:19:29;;;;;;;;;;;15.70;42.10;;;;;;4361404;32;19977;-48
2021/09/17 01:21:59;;;;;;;;;;;15.70;42.00;;;;;;4360896;32;20021;-52
2021/09/17 01:24:25;;;;;;;;;;;15.70;42.10;;;;;;4347507;32;19970;-47
2021/09/17 01:26:51;;;;;;;;;;;15.60;42.10;;;;;;4361286;32;20377;-47
2021/09/17 01:29:18;;;;;;;;;;;15.60;42.20;;;;;;4361302;32;19986;-50
2021/09/17 01:31:44;;;;;;;;;;;15.50;42.20;;;;;;4361049;32;19968;-48
2021/09/17 01:34:10;;;;;;;;;;;15.40;42.20;;;;;;4361067;32;19993;-49
2021/09/17 01:36:36;;;;;;;;;;;15.30;42.50;;;;;;4346950;32;19959;-49
2021/09/17 01:39:03;;;;;;;;;;;15.30;42.70;;;;;;4360769;32;20042;-48
2021/09/17 01:41:29;;;;;;;;;;;15.40;42.80;;;;;;4361165;32;19990;-49
2021/09/17 01:43:55;;;;;;;;;;;15.50;42.80;;;;;;4361049;32;19987;-51
2021/09/17 01:46:21;;;;;;;;;;;15.50;42.70;;;;;;4361348;32;19959;-48
2021/09/17 01:48:48;;;;;;;;;;;15.50;42.90;;;;;;4352646;32;20061;-48
2021/09/17 01:51:14;;;;;;;;;;;15.40;42.90;;;;;;4346072;33;19987;-48
2021/09/17 01:53:40;;;;;;;;;;;15.40;43.00;;;;;;4345722;33;20410;-47
2021/09/17 01:56:06;;;;;;;;;;;15.40;42.90;;;;;;4331968;33;20062;-49
2021/09/17 01:58:33;;;;;;;;;;;15.40;43.00;;;;;;4346084;33;20065;-49
2021/09/17 02:00:59;;;;;;;;;;;15.40;43.10;;;;;;4345612;33;19975;-49
2021/09/17 02:03:25;;;;;;;;;;;15.30;43.10;;;;;;4315579;33;19997;-49
2021/09/17 02:05:51;;;;;;;;;;;15.30;43.10;;;;;;4328727;33;19967;-47
2021/09/17 02:08:17;;;;;;;;;;;15.30;43.20;;;;;;4316577;33;19971;-49
2021/09/17 02:10:44;;;;;;;;;;;15.20;43.20;;;;;;4328520;33;19967;-49
2021/09/17 02:13:12;;;;;;;;;;;15.20;43.20;;;;;;4328314;33;20043;-51
2021/09/17 02:15:38;;;;;;;;;;;15.20;43.40;;;;;;4328096;33;20055;-48
2021/09/17 02:18:04;;;;;;;;;;;15.20;43.40;;;;;;4328790;33;20180;-49
2021/09/17 02:20:30;;;;;;;;;;;15.20;43.40;;;;;;4328679;33;20015;-50
2021/09/17 02:22:56;;;;;;;;;;;15.20;43.40;;;;;;4327869;33;20505;-48
2021/09/17 02:25:23;;;;;;;;;;;15.30;43.30;;;;;;4328275;33;19986;-48
2021/09/17 02:27:49;;;;;;;;;;;15.30;43.20;;;;;;4328197;33;19995;-49
2021/09/17 02:30:15;;;;;;;;;;;15.40;43.10;;;;;;4328592;33;19967;-51
2021/09/17 02:32:41;;;;;;;;;;;15.40;42.90;;;;;;4316133;33;19975;-50
2021/09/17 02:35:08;;;;;;;;;;;15.40;42.90;;;;;;4341452;33;20040;-50
2021/09/17 02:37:34;;;;;;;;;;;15.30;42.90;;;;;;4345482;33;19971;-51
2021/09/17 02:40:00;;;;;;;;;;;15.30;43.00;;;;;;4345080;33;19982;-50
2021/09/17 02:42:27;;;;;;;;;;;15.30;43.00;;;;;;4331330;33;19966;-44
2021/09/17 02:44:53;;;;;;;;;;;15.30;43.10;;;;;;4331552;33;19958;-49
2021/09/17 02:47:20;;;;;;;;;;;15.30;43.10;;;;;;4344773;33;19978;-48
2021/09/17 02:49:46;;;;;;;;;;;15.20;43.00;;;;;;4358969;32;20015;-50
2021/09/17 02:52:13;;;;;;;;;;;15.20;42.90;;;;;;4360007;32;19978;-47
2021/09/17 02:54:39;;;;;;;;;;;15.10;43.00;;;;;;4359518;32;20102;-49
2021/09/17 02:57:05;;;;;;;;;;;15.00;43.10;;;;;;4359585;32;19965;-47
2021/09/17 02:59:31;;;;;;;;;;;15.00;43.30;;;;;;4345819;32;19985;-50
2021/09/17 03:01:57;;;;;;;;;;;15.00;43.40;;;;;;4360126;32;20006;-40
2021/09/17 03:04:23;;;;;;;;;;;15.00;43.40;;;;;;4346032;32;19982;-49
2021/09/17 03:06:50;;;;;;;;;;;15.00;43.30;;;;;;4359935;32;19985;-50
2021/09/17 03:09:16;;;;;;;;;;;15.00;43.30;;;;;;4359663;32;19962;-49
2021/09/17 03:11:42;;;;;;;;;;;15.00;43.20;;;;;;4359712;32;20046;-48
2021/09/17 03:14:08;;;;;;;;;;;15.00;43.20;;;;;;4359360;32;20001;-51
2021/09/17 03:16:34;;;;;;;;;;;15.10;43.10;;;;;;4359118;32;20359;-48
2021/09/17 03:19:00;;;;;;;;;;;15.10;43.00;;;;;;4359449;32;20435;-49
2021/09/17 03:21:26;;;;;;;;;;;15.20;42.90;;;;;;4359269;32;19982;-47
2021/09/17 03:23:53;;;;;;;;;;;15.20;42.70;;;;;;4359542;32;20057;-48
2021/09/17 03:26:19;;;;;;;;;;;15.20;42.50;;;;;;4359620;32;20013;-50
2021/09/17 03:28:46;;;;;;;;;;;15.30;42.30;;;;;;4358921;32;19966;-48
2021/09/17 03:31:12;;;;;;;;;;;15.30;42.30;;;;;;4345247;32;20372;-49
2021/09/17 03:33:38;;;;;;;;;;;15.40;42.20;;;;;;4359260;32;20363;-48
2021/09/17 03:36:04;;;;;;;;;;;15.50;42.10;;;;;;4358982;32;20365;-48
2021/09/17 03:38:31;;;;;;;;;;;15.60;41.80;;;;;;4359516;32;19970;-49
2021/09/17 03:40:57;;;;;;;;;;;15.60;40.90;;;;;;4359621;32;19967;-48
2021/09/17 03:43:23;;;;;;;;;;;15.60;40.00;;;;;;4358986;32;20113;-46
2021/09/17 03:45:49;;;;;;;;;;;15.60;40.00;;;;;;4359076;32;19966;-51
2021/09/17 03:48:15;;;;;;;;;;;15.60;39.70;;;;;;4354458;32;20446;-49
2021/09/17 03:50:42;;;;;;;;;;;15.60;39.40;;;;;;4344364;33;19961;-46
2021/09/17 03:53:08;;;;;;;;;;;15.60;39.10;;;;;;4344067;33;20336;-49
2021/09/17 03:55:34;;;;;;;;;;;15.70;39.10;;;;;;4344071;33;19995;-49
2021/09/17 03:58:01;;;;;;;;;;;15.70;39.10;;;;;;4311745;33;20184;-40
2021/09/17 04:00:27;;;;;;;;;;;15.80;39.00;;;;;;4300213;33;20416;-50
2021/09/17 04:02:54;;;;;;;;;;;15.70;38.60;;;;;;4312303;33;20043;-51
2021/09/17 04:05:20;;;;;;;;;;;15.70;38.70;;;;;;4311993;33;19971;-51
2021/09/17 04:07:46;;;;;;;;;;;15.70;38.80;;;;;;4312098;33;20412;-50
2021/09/17 04:10:14;;;;;;;;;;;15.70;39.10;;;;;;4311928;33;19978;-48
2021/09/17 04:12:40;;;;;;;;;;;15.80;39.70;;;;;;4312154;33;19964;-49
2021/09/17 04:15:07;;;;;;;;;;;15.80;39.90;;;;;;4311779;33;20405;-52
2021/09/17 04:17:33;;;;;;;;;;;15.80;40.20;;;;;;4311999;33;19983;-48
2021/09/17 04:19:59;;;;;;;;;;;15.80;40.70;;;;;;4312267;33;19979;-49
2021/09/17 04:22:25;;;;;;;;;;;15.90;41.00;;;;;;4312105;33;19971;-49
2021/09/17 04:24:53;;;;;;;;;;;16.00;41.20;;;;;;4312049;33;20014;-51
2021/09/17 04:27:20;;;;;;;;;;;16.00;41.60;;;;;;4312071;33;20006;-48
2021/09/17 04:29:46;;;;;;;;;;;15.90;41.90;;;;;;4337818;33;19974;-50
2021/09/17 04:32:13;;;;;;;;;;;15.80;42.30;;;;;;4343648;33;19982;-49
2021/09/17 04:34:39;;;;;;;;;;;15.70;43.10;;;;;;4342569;33;19970;-50
2021/09/17 04:37:05;;;;;;;;;;;15.60;43.60;;;;;;4343405;33;20098;-48
2021/09/17 04:39:31;;;;;;;;;;;15.50;44.00;;;;;;4343833;33;19986;-47
2021/09/17 04:41:57;;;;;;;;;;;15.50;44.10;;;;;;4343747;33;19959;-50
2021/09/17 04:44:23;;;;;;;;;;;15.50;44.10;;;;;;4343147;33;19997;-49
2021/09/17 04:46:50;;;;;;;;;;;15.50;44.30;;;;;;4343404;33;20411;-50
2021/09/17 04:49:16;;;;;;;;;;;15.40;44.50;;;;;;4353667;32;20017;-49
2021/09/17 04:51:42;;;;;;;;;;;15.30;44.70;;;;;;4358309;32;19970;-51
2021/09/17 04:54:10;;;;;;;;;;;15.30;44.90;;;;;;4358139;32;19963;-52
2021/09/17 04:56:38;;;;;;;;;;;15.30;45.20;;;;;;4358201;32;19973;-50
2021/09/17 04:59:04;;;;;;;;;;;15.20;45.80;;;;;;4358372;32;19970;-37
2021/09/17 05:01:30;;;;;;;;;;;15.30;46.10;;;;;;4358534;32;20001;-49
2021/09/17 05:03:57;;;;;;;;;;;15.40;45.90;;;;;;4358118;32;19977;-50
2021/09/17 05:06:23;;;;;;;;;;;15.40;45.50;;;;;;4358129;32;20014;-50
2021/09/17 05:08:50;;;;;;;;;;;15.40;44.80;;;;;;4358247;32;19977;-50
2021/09/17 05:11:16;;;;;;;;;;;15.40;45.00;;;;;;4358029;32;20363;-53
2021/09/17 05:13:42;;;;;;;;;;;15.60;45.10;;;;;;4358184;32;20054;-52
2021/09/17 05:16:08;;;;;;;;;;;15.90;45.70;;;;;;4357720;32;19978;-50
2021/09/17 05:18:34;;;;;;;;;;;16.20;44.60;;;;;;4358589;32;20099;-51
2021/09/17 05:21:01;;;;;;;;;;;16.50;43.60;;;;;;4358054;32;19962;-51
2021/09/17 05:23:27;;;;;;;;;;;16.80;42.60;;;;;;4357809;32;20045;-53
2021/09/17 05:25:53;;;;;;;;;;;17.10;41.70;;;;;;4358203;32;19974;-55
2021/09/17 05:28:19;;;;;;;;;;;17.30;40.30;;;;;;4357902;32;19965;-52
2021/09/17 05:30:45;;;;;;;;;;;17.40;39.20;;;;;;4358183;32;19963;-49
2021/09/17 05:33:11;;;;;;;;;;;17.60;38.20;;;;;;4357905;32;20048;-47
2021/09/17 05:35:38;;;;;;;;;;;17.70;38.10;;;;;;4357902;32;19970;-48
2021/09/17 05:38:04;;;;;;;;;;;17.80;38.30;;;;;;4358128;32;19996;-48
2021/09/17 05:40:30;;;;;;;;;;;18.00;37.80;;;;;;4357720;32;19970;-51
2021/09/17 05:42:56;;;;;;;;;;;18.10;37.60;;;;;;4357578;32;20827;-48
2021/09/17 05:45:22;;;;;;;;;;;18.20;37.60;;;;;;4359390;32;19982;-47
2021/09/17 05:47:49;;;;;;;;;;;18.20;36.40;;;;;;4359177;32;19990;-48
2021/09/17 05:50:15;;;;;;;;;;;18.30;36.30;;;;;;4345871;33;19967;-50
2021/09/17 05:52:41;;;;;;;;;;;18.40;35.90;;;;;;4345533;33;19989;-47
2021/09/17 05:55:08;;;;;;;;;;;18.40;36.20;;;;;;4345774;33;19982;-43
2021/09/17 05:57:34;;;;;;;;;;;18.40;36.10;;;;;;4345917;33;19982;-48
2021/09/17 06:00:00;;;;;;;;;;;18.50;36.50;;;;;;4345589;33;19970;-51
2021/09/17 06:02:26;;;;;;;;;;;18.60;35.90;;;;;;4345453;33;19963;-48
2021/09/17 06:04:52;;;;;;;;;;;18.80;35.80;;;;;;4345616;33;19966;-47
2021/09/17 06:07:18;;;;;;;;;;;18.80;35.20;;;;;;4345472;33;20036;-48
2021/09/17 06:09:45;;;;;;;;;;;18.80;35.20;;;;;;4345487;33;19982;-48
2021/09/17 06:12:11;;;;;;;;;;;18.90;35.00;;;;;;4345076;33;20398;-51
2021/09/17 06:14:37;;;;;;;;;;;18.90;34.80;;;;;;4345740;33;19978;-49
2021/09/17 06:17:04;;;;;;;;;;;18.90;34.80;;;;;;4331473;33;19965;-49
2021/09/17 06:19:30;;;;;;;;;;;18.80;34.70;;;;;;4345609;33;19979;-50
2021/09/17 06:21:56;;;;;;;;;;;18.90;35.00;;;;;;4345202;33;20057;-49
2021/09/17 06:24:22;;;;;;;;;;;18.80;34.40;;;;;;4345300;33;20058;-47
2021/09/17 06:26:49;;;;;;;;;;;18.80;34.40;;;;;;4344952;33;20075;-47
2021/09/17 06:29:15;;;;;;;;;;;18.80;34.70;;;;;;4345267;33;19959;-48
2021/09/17 06:31:42;;;;;;;;;;;18.80;34.90;;;;;;4345024;33;19971;-47
2021/09/17 06:34:08;;;;;;;;;;;18.70;34.40;;;;;;4345489;33;19967;-49
2021/09/17 06:36:34;;;;;;;;;;;18.80;34.40;;;;;;4331007;33;19998;-50
2021/09/17 06:39:01;;;;;;;;;;;18.70;33.50;;;;;;4345001;33;20017;-43
2021/09/17 06:41:28;;;;;;;;;;;18.60;33.50;;;;;;4345020;33;19967;-50
2021/09/17 06:43:54;;;;;;;;;;;18.50;33.80;;;;;;4345275;33;20001;-49
2021/09/17 06:46:20;;;;;;;;;;;18.50;34.40;;;;;;4344954;33;20005;-50
2021/09/17 06:48:46;;;;;;;;;;;18.50;34.70;;;;;;4344732;33;20168;-48
2021/09/17 06:51:12;;;;;;;;;;;18.50;35.10;;;;;;4344564;33;19975;-50
2021/09/17 06:53:39;;;;;;;;;;;18.50;35.90;;;;;;4344849;33;20140;-47
2021/09/17 06:56:05;;;;;;;;;;;18.50;36.30;;;;;;4343789;32;19966;-48
2021/09/17 06:58:34;;;;;;;;;;;18.50;36.40;;;;;;4330953;33;20014;-49
2021/09/17 07:01:00;;;;;;;;;;;18.70;36.50;;;;;;4344532;33;19986;-50
2021/09/17 07:03:26;;;;;;;;;;;18.80;36.30;;;;;;4330430;33;20391;-48
2021/09/17 07:05:54;;;;;;;;;;;18.90;36.00;;;;;;4330777;33;20065;-48
2021/09/17 07:08:20;;;;;;;;;;;18.90;36.20;;;;;;4344558;33;19982;-44
2021/09/17 07:10:46;;;;;;;;;;;18.90;35.30;;;;;;4344651;33;19975;-51
2021/09/17 07:13:13;;;;;;;;;;;18.90;35.40;;;;;;4344788;33;19966;-46
2021/09/17 07:15:39;;;;;;;;;;;18.80;35.20;;;;;;4350402;32;19962;-48
2021/09/17 07:18:05;;;;;;;;;;;18.70;35.00;;;;;;4359525;32;19962;-49
2021/09/17 07:20:32;;;;;;;;;;;18.70;35.20;;;;;;4359664;32;20335;-50
2021/09/17 07:22:58;;;;;;;;;;;18.70;35.20;;;;;;4359088;32;19970;-52
2021/09/17 07:25:24;;;;;;;;;;;18.70;34.80;;;;;;4359284;32;19977;-49
2021/09/17 07:27:50;;;;;;;;;;;18.60;34.40;;;;;;4359100;32;19965;-51
2021/09/17 07:30:17;;;;;;;;;;;18.50;34.50;;;;;;4358998;32;20382;-48
2021/09/17 07:32:43;;;;;;;;;;;18.50;34.50;;;;;;4345170;32;19994;-45
2021/09/17 07:35:12;;;;;;;;;;;18.50;34.30;;;;;;4359144;32;19975;-48
2021/09/17 07:37:38;;;;;;;;;;;18.50;34.50;;;;;;4359251;32;19974;-47
2021/09/17 07:40:05;;;;;;;;;;;18.70;34.40;;;;;;4344998;32;20055;-50
2021/09/17 07:42:31;;;;;;;;;;;18.80;33.90;;;;;;4359217;32;20436;-51
2021/09/17 07:44:57;;;;;;;;;;;19.00;33.80;;;;;;4358830;32;19958;-51
2021/09/17 07:47:24;;;;;;;;;;;19.10;32.90;;;;;;4359053;32;20041;-49
2021/09/17 07:49:51;;;;;;;;;;;19.30;32.60;;;;;;4344588;32;19970;-49
2021/09/17 07:52:18;;;;;;;;;;;19.50;31.90;;;;;;4329978;33;20469;-50
2021/09/17 07:54:44;;;;;;;;;;;19.70;31.80;;;;;;4343860;33;19962;-42
2021/09/17 07:57:10;;;;;;;;;;;19.90;31.80;;;;;;4344071;33;19987;-50
2021/09/17 07:59:36;;;;;;;;;;;19.90;31.40;;;;;;4343805;33;19974;-50
2021/09/17 08:02:03;;;;;;;;;;;20.00;31.70;;;;;;4343252;33;20459;-51
2021/09/17 08:04:29;;;;;;;;;;;20.10;31.20;;;;;;4343979;33;19965;-50
2021/09/17 08:06:55;;;;;;;;;;;20.20;31.50;;;;;;4343447;33;19963;-52
2021/09/17 08:09:21;;;;;;;;;;;20.40;31.50;;;;;;4343460;33;19975;-55
2021/09/17 08:11:48;;;;;;;;;;;20.50;30.70;;;;;;4343551;33;20051;-55
2021/09/17 08:14:14;;;;;;;;;;;20.60;30.80;;;;;;4343904;33;19962;-53
2021/09/17 08:16:40;;;;;;;;;;;20.70;30.20;;;;;;4343353;33;20461;-50
2021/09/17 08:19:07;;;;;;;;;;;20.70;30.00;;;;;;4343481;33;20387;-51
2021/09/17 08:21:33;;;;;;;;;;;20.80;30.20;;;;;;4343655;33;19997;-52
2021/09/17 08:23:59;;;;;;;;;;;20.80;30.00;;;;;;4343297;33;20372;-49
2021/09/17 08:26:25;;;;;;;;;;;20.70;29.90;;;;;;4343454;33;20135;-48
2021/09/17 08:28:51;;;;;;;;;;;20.60;30.00;;;;;;4343529;33;19991;-50
2021/09/17 08:31:19;;;;;;;;;;;20.60;30.30;;;;;;4343479;33;20035;-47
2021/09/17 08:33:47;;;;;;;;;;;20.70;30.00;;;;;;4343677;33;20002;-51
2021/09/17 08:36:13;;;;;;;;;;;20.90;30.00;;;;;;4343684;33;20427;-50
2021/09/17 08:38:40;;;;;;;;;;;21.10;29.30;;;;;;4343377;33;19963;-50
2021/09/17 08:41:06;;;;;;;;;;;21.30;29.20;;;;;;4343317;33;20052;-48
2021/09/17 08:43:32;;;;;;;;;;;21.50;29.30;;;;;;4343451;33;19963;-50
2021/09/17 08:45:58;;;;;;;;;;;21.50;29.30;;;;;;4343039;33;20452;-50
2021/09/17 08:48:28;;;;;;;;;;;21.70;29.30;;;;;;4348338;32;19973;-50
2021/09/17 08:50:55;;;;;;;;;;;21.70;28.90;;;;;;4344292;32;20048;-50
2021/09/17 08:53:22;;;;;;;;;;;21.50;28.70;;;;;;4358378;32;20045;-53
2021/09/17 08:55:49;;;;;;;;;;;21.50;28.90;;;;;;4357891;32;20426;-50
2021/09/17 08:58:15;;;;;;;;;;;21.50;29.00;;;;;;4358151;32;19970;-52
2021/09/17 09:00:42;;;;;;;;;;;21.40;28.50;;;;;;4358157;32;20449;-52
2021/09/17 09:03:09;;;;;;;;;;;21.30;28.70;;;;;;4358100;32;19990;-53
2021/09/17 09:05:37;;;;;;;;;;;21.20;28.60;;;;;;4357871;32;20402;-47
2021/09/17 09:08:04;;;;;;;;;;;21.20;28.70;;;;;;4357909;32;20059;-47
2021/09/17 09:10:30;;;;;;;;;;;21.10;28.70;;;;;;4358079;32;20021;-52
2021/09/17 09:13:01;;;;;;;;;;;21.10;28.70;;;;;;4357833;32;20004;-52
2021/09/17 09:15:30;;;;;;;;;;;21.10;28.50;;;;;;4358098;32;20042;-49
2021/09/17 09:18:02;;;;;;;;;;;20.90;28.40;;;;;;4357904;32;20004;-49
2021/09/17 09:20:36;;;;;;;;;;;20.80;29.30;;;;;;4359899;32;19974;-52
2021/09/17 09:23:03;;;;;;;;;;;20.80;28.90;;;;;;4360457;32;19966;-50
2021/09/17 09:25:29;;;;;;;;;;;20.70;28.80;;;;;;4360888;32;20027;-50
2021/09/17 09:28:10;;;;;;;;;;;20.50;28.60;;;;;;4361177;32;20005;-56
2021/09/17 09:30:36;;;;;;;;;;;20.30;28.80;;;;;;4361276;32;20405;-52
2021/09/17 09:33:25;;;;;;;;;;;20.30;29.00;;;;;;4360743;32;20006;-50
2021/09/17 09:36:10;;;;;;;;;;;20.20;28.90;;;;;;4360652;32;20066;-48
2021/09/17 09:38:42;;;;;;;;;;;20.20;29.10;;;;;;4360889;32;19981;-48
2021/09/17 09:41:22;;;;;;;;;;;20.10;29.20;;;;;;4347103;32;19973;-52
2021/09/17 09:43:52;;;;;;;;;;;20.20;29.10;;;;;;4361096;32;20492;-49
2021/09/17 09:46:20;;;;;;;;;;;20.20;28.90;;;;;;4360729;32;19994;-53
2021/09/17 09:48:58;;;;;;;;;;;20.20;29.00;;;;;;4339819;33;19990;-52
2021/09/17 09:51:35;;;;;;;;;;;20.20;28.90;;;;;;4331587;33;20436;-54
2021/09/17 09:54:03;;;;;;;;;;;20.10;28.90;;;;;;4332335;33;19978;-51
2021/09/17 09:56:30;;;;;;;;;;;19.90;29.00;;;;;;4345860;33;20038;-52
2021/09/17 09:58:57;;;;;;;;;;;19.80;29.20;;;;;;4345925;33;19974;-51
2021/09/17 10:01:23;;;;;;;;;;;19.80;29.20;;;;;;4319977;33;19990;-52
2021/09/17 10:03:53;;;;;;;;;;;19.90;29.40;;;;;;4345397;33;19971;-52
2021/09/17 10:06:19;;;;;;;;;;;20.00;29.30;;;;;;4345960;33;19959;-55
2021/09/17 10:08:46;;;;;;;;;;;20.10;29.20;;;;;;4319205;33;20027;-52
2021/09/17 10:11:12;;;;;;;;;;;20.30;29.20;;;;;;4331515;33;20006;-51
2021/09/17 10:13:38;;;;;;;;;;;20.40;29.00;;;;;;4345593;33;20467;-53
2021/09/17 10:16:05;;;;;;;;;;;20.40;28.90;;;;;;4345069;33;20477;-54
2021/09/17 10:18:31;;;;;;;;;;;20.40;29.10;;;;;;4331755;33;19981;-53
2021/09/17 10:20:57;;;;;;;;;;;20.50;28.90;;;;;;4345117;33;20457;-54
2021/09/17 10:23:30;;;;;;;;;;;20.70;28.90;;;;;;4345232;33;19983;-51
2021/09/17 10:26:01;;;;;;;;;;;20.70;28.90;;;;;;4345108;33;19970;-54
2021/09/17 10:28:27;;;;;;;;;;;20.60;29.00;;;;;;4345346;33;20045;-53
2021/09/17 10:30:53;;;;;;;;;;;20.60;29.20;;;;;;4344393;33;19969;-46
2021/09/17 10:33:23;;;;;;;;;;;20.60;29.20;;;;;;4319067;33;19995;-52
2021/09/17 10:35:49;;;;;;;;;;;20.60;29.10;;;;;;4345402;33;19990;-50
2021/09/17 10:38:19;;;;;;;;;;;20.70;29.10;;;;;;4345006;33;19970;-51
2021/09/17 10:40:53;;;;;;;;;;;20.70;28.50;;;;;;4345019;33;19971;-52
2021/09/17 10:43:22;;;;;;;;;;;20.70;28.40;;;;;;4345070;33;19970;-52
2021/09/17 10:45:56;;;;;;;;;;;20.80;28.50;;;;;;4345096;33;19955;-52
2021/09/17 10:48:27;;;;;;;;;;;20.80;28.60;;;;;;4336544;32;19983;-51
2021/09/17 10:51:04;;;;;;;;;;;20.90;28.50;;;;;;4359677;32;19962;-53
2021/09/17 10:53:39;;;;;;;;;;;20.90;28.40;;;;;;4359235;32;20402;-52
2021/09/17 10:56:12;;;;;;;;;;;20.90;28.50;;;;;;4359531;32;19975;-52
2021/09/17 10:58:39;;;;;;;;;;;21.00;28.40;;;;;;4359791;32;19966;-55
2021/09/17 11:01:06;;;;;;;;;;;21.00;28.40;;;;;;4359754;32;20054;-54
2021/09/17 11:03:41;;;;;;;;;;;21.00;28.30;;;;;;4359762;32;19977;-52
2021/09/17 11:08:53;;;;;;;;;;;20.90;28.50;;;;;;4359301;32;19994;-56
2021/09/17 11:11:33;;;;;;;;;;;20.90;28.70;;;;;;4359423;32;19965;-52
2021/09/17 11:14:01;;;;;;;;;;;20.90;28.80;;;;;;4359429;32;20405;-52
2021/09/17 11:16:28;;;;;;;;;;;20.90;28.90;;;;;;4359125;32;20087;-52
2021/09/17 11:19:01;;;;;;;;;;;20.90;28.90;;;;;;4359267;32;20085;-50
2021/09/17 11:21:29;;;;;;;;;;;20.90;29.10;;;;;;4359339;32;20394;-51
2021/09/17 11:23:56;;;;;;;;;;;20.80;29.10;;;;;;4345690;32;20136;-48
2021/09/17 11:26:26;;;;;;;;;;;20.70;28.90;;;;;;4359526;32;19973;-50
2021/09/17 11:29:01;;;;;;;;;;;20.70;28.90;;;;;;4359338;32;19993;-49
2021/09/17 11:31:36;;;;;;;;;;;20.80;29.10;;;;;;4359212;32;20046;-47
2021/09/17 11:34:07;;;;;;;;;;;20.80;29.10;;;;;;4358926;32;19966;-51
2021/09/17 11:36:58;;;;;;;;;;;20.90;28.90;;;;;;4358691;32;20564;-50
2021/09/17 11:39:37;;;;;;;;;;;20.90;28.80;;;;;;4359040;32;20373;-52
2021/09/17 11:42:14;;;;;;;;;;;20.90;28.90;;;;;;4359005;32;19970;-49
2021/09/17 11:44:51;;;;;;;;;;;20.90;28.90;;;;;;4358735;32;20037;-54
2021/09/17 11:47:29;;;;;;;;;;;20.90;28.70;;;;;;4358625;32;20490;-52
2021/09/17 11:49:59;;;;;;;;;;;20.90;28.70;;;;;;4344061;32;19978;-49
2021/09/17 11:52:25;;;;;;;;;;;20.90;28.70;;;;;;4344403;33;20124;-51
2021/09/17 11:54:58;;;;;;;;;;;20.90;28.60;;;;;;4343489;33;20415;-50
2021/09/17 11:57:32;;;;;;;;;;;20.90;28.10;;;;;;4344017;33;19966;-48
2021/09/17 11:59:58;;;;;;;;;;;20.90;28.20;;;;;;4343799;33;19982;-41
2021/09/17 12:02:25;;;;;;;;;;;20.90;28.20;;;;;;4344111;33;20064;-50
2021/09/17 12:04:51;;;;;;;;;;;20.80;28.20;;;;;;4343385;33;19993;-49
2021/09/17 12:07:18;;;;;;;;;;;20.60;28.20;;;;;;4329790;33;19970;-50
2021/09/17 12:09:44;;;;;;;;;;;20.50;28.40;;;;;;4329743;33;20009;-48
2021/09/17 12:12:11;;;;;;;;;;;20.40;28.50;;;;;;4343797;33;19959;-50
2021/09/17 12:14:38;;;;;;;;;;;20.40;28.60;;;;;;4343116;33;19977;-49
2021/09/17 12:17:05;;;;;;;;;;;20.30;28.60;;;;;;4329329;33;20050;-50
2021/09/17 12:19:53;;;;;;;;;;;20.30;28.60;;;;;;4344110;33;19971;-51
2021/09/17 12:22:37;;;;;;;;;;;20.20;28.40;;;;;;4329826;33;20081;-48
2021/09/17 12:25:25;;;;;;;;;;;20.20;28.50;;;;;;4343198;33;20500;-48
2021/09/17 12:27:59;;;;;;;;;;;20.20;28.40;;;;;;4343523;33;19982;-49
2021/09/17 12:30:30;;;;;;;;;;;20.20;28.50;;;;;;4343593;33;19970;-51
2021/09/17 12:33:12;;;;;;;;;;;20.20;28.60;;;;;;4343506;33;19967;-49
2021/09/17 12:35:43;;;;;;;;;;;20.30;28.60;;;;;;4343338;33;19971;-49
2021/09/17 12:38:10;;;;;;;;;;;20.40;28.50;;;;;;4329427;33;20352;-45
2021/09/17 12:40:39;;;;;;;;;;;20.40;28.30;;;;;;4343524;33;19978;-50
2021/09/17 12:43:10;;;;;;;;;;;20.30;28.80;;;;;;4343208;33;19967;-49
2021/09/17 12:45:38;;;;;;;;;;;20.30;28.00;;;;;;4342835;33;20082;-49
2021/09/17 12:48:05;;;;;;;;;;;20.20;28.00;;;;;;4346350;32;19993;-48
2021/09/17 12:50:33;;;;;;;;;;;20.10;27.90;;;;;;4358270;32;19971;-47
2021/09/17 12:53:04;;;;;;;;;;;20.00;28.00;;;;;;4358338;32;19969;-49
2021/09/17 12:55:31;;;;;;;;;;;19.80;28.00;;;;;;4344216;32;19973;-51
2021/09/17 12:58:08;;;;;;;;;;;19.60;28.00;;;;;;4344370;32;20403;-47
2021/09/17 13:00:41;;;;;;;;;;;19.40;28.30;;;;;;4344450;32;20025;-48
2021/09/17 13:03:08;;;;;;;;;;;19.30;28.50;;;;;;4358314;32;20008;-51
2021/09/17 13:05:36;;;;;;;;;;;19.20;28.70;;;;;;4358234;32;20410;-52
2021/09/17 13:08:03;;;;;;;;;;;19.10;29.00;;;;;;4357997;32;19973;-44
2021/09/17 13:10:29;;;;;;;;;;;19.00;29.50;;;;;;4358817;32;20043;-48
2021/09/17 13:12:56;;;;;;;;;;;18.90;30.00;;;;;;4358144;32;20029;-47
2021/09/17 13:15:22;;;;;;;;;;;18.90;31.10;;;;;;4358117;32;19994;-50
2021/09/17 13:17:49;;;;;;;;;;;18.70;32.50;;;;;;4358291;32;19993;-47
2021/09/17 13:20:16;;;;;;;;;;;18.70;33.50;;;;;;4358554;32;19958;-48
2021/09/17 13:22:42;;;;;;;;;;;18.70;34.40;;;;;;4358130;32;19994;-48
2021/09/17 13:25:09;;;;;;;;;;;18.60;35.60;;;;;;4358100;32;20128;-49
2021/09/17 13:27:36;;;;;;;;;;;18.40;36.40;;;;;;4358115;32;20120;-50
2021/09/17 13:30:06;;;;;;;;;;;18.30;37.60;;;;;;4344052;32;20419;-51
2021/09/17 13:32:33;;;;;;;;;;;18.10;37.80;;;;;;4358275;32;19974;-50
2021/09/17 13:35:00;;;;;;;;;;;18.00;37.80;;;;;;4358071;32;20049;-51
2021/09/17 13:37:26;;;;;;;;;;;17.90;38.20;;;;;;4357758;32;19977;-50
2021/09/17 13:39:53;;;;;;;;;;;17.80;37.70;;;;;;4357402;32;20449;-49
2021/09/17 13:42:19;;;;;;;;;;;17.80;37.80;;;;;;4357590;32;20061;-50
2021/09/17 13:44:45;;;;;;;;;;;17.80;37.50;;;;;;4343671;32;20427;-48
2021/09/17 13:47:11;;;;;;;;;;;17.80;37.80;;;;;;4357742;32;20063;-50
2021/09/17 13:49:38;;;;;;;;;;;17.70;38.70;;;;;;4344924;32;19986;-49
2021/09/17 13:52:05;;;;;;;;;;;17.70;37.70;;;;;;4329493;33;19996;-48
2021/09/17 13:54:35;;;;;;;;;;;17.50;38.00;;;;;;4343360;33;19974;-53
2021/09/17 13:57:01;;;;;;;;;;;17.40;38.10;;;;;;4343171;33;20042;-49
2021/09/17 13:59:27;;;;;;;;;;;17.30;38.50;;;;;;4342798;33;20379;-44
2021/09/17 14:01:54;;;;;;;;;;;17.20;38.30;;;;;;4343180;33;20042;-49
2021/09/17 14:04:20;;;;;;;;;;;17.10;38.60;;;;;;4342577;33;20390;-52
2021/09/17 14:06:46;;;;;;;;;;;17.00;39.60;;;;;;4344780;32;19963;-55
2021/09/17 14:09:14;;;;;;;;;;;16.80;39.70;;;;;;4344948;33;19974;-49
2021/09/17 14:11:42;;;;;;;;;;;16.70;40.30;;;;;;4345529;33;19985;-51
2021/09/17 14:14:08;;;;;;;;;;;16.60;40.50;;;;;;4344998;33;20040;-49
2021/09/17 14:16:35;;;;;;;;;;;16.60;40.80;;;;;;4331029;33;19982;-49
2021/09/17 14:19:01;;;;;;;;;;;16.50;40.70;;;;;;4345340;33;20017;-53
2021/09/17 14:21:28;;;;;;;;;;;16.50;40.80;;;;;;4345616;33;19962;-51